Time;durP1;ratioP1;P1;durP2;ratioP2;P2;SDS_P1;SDS_P2;PMS_P1;PMS_P2;Temp;Humidity;BMP_temperature;BMP_pressure;BME280_temperature;BME280_humidity;BME280_pressure;Samples;Min_cycle;Max_cycle;Signal;HPM_P1;HPM_P2
2021/12/01 00:02:10;;;;;;;0.60;0.60;;;6.30;99.90;;;;;;5269289;27;20047;-74
2021/12/01 00:04:41;;;;;;;0.65;0.65;;;6.30;99.90;;;;;;5269159;28;20022;-74
2021/12/01 00:07:12;;;;;;;0.60;0.60;;;6.30;99.90;;;;;;5266660;28;20032;-76
2021/12/01 00:09:43;;;;;;;0.90;0.90;;;6.30;99.90;;;;;;5283331;28;20035;-74
2021/12/01 00:12:14;;;;;;;0.47;0.47;;;6.40;99.90;;;;;;5286833;27;20035;-74
2021/12/01 00:14:45;;;;;;;0.90;0.90;;;6.30;99.90;;;;;;5271626;28;20370;-75
2021/12/01 00:17:21;;;;;;;0.60;0.60;;;6.30;99.90;;;;;;5283624;27;20441;-75
2021/12/01 00:19:53;;;;;;;0.70;0.70;;;6.30;99.90;;;;;;5306041;28;20079;-74
2021/12/01 00:22:27;;;;;;;0.60;0.60;;;6.30;99.90;;;;;;5284674;28;20086;-75
2021/12/01 00:24:57;;;;;;;0.75;0.75;;;6.30;99.90;;;;;;5285469;28;20094;-74
2021/12/01 00:27:31;;;;;;;0.80;0.80;;;6.30;99.90;;;;;;5305187;28;20027;-75
2021/12/01 00:30:04;;;;;;;0.60;0.60;;;6.50;99.90;;;;;;5305598;28;20054;-74
2021/12/01 00:32:37;;;;;;;0.80;0.80;;;6.50;99.90;;;;;;5304241;28;20046;-73
2021/12/01 00:35:10;;;;;;;0.60;0.60;;;6.50;99.90;;;;;;5288158;28;20023;-73
2021/12/01 00:37:44;;;;;;;0.90;0.90;;;6.50;99.90;;;;;;5270561;28;20039;-75
2021/12/01 00:40:16;;;;;;;0.80;0.80;;;6.50;99.90;;;;;;5281490;28;20035;-73
2021/12/01 00:42:46;;;;;;;0.60;0.60;;;6.50;99.90;;;;;;5270590;28;20035;-74
2021/12/01 00:45:28;;;;;;;0.50;0.50;;;6.50;99.90;;;;;;5233510;28;20035;-74
2021/12/01 00:48:08;;;;;;;0.50;0.50;;;6.40;99.90;;;;;;5260481;28;20073;-75
2021/12/01 00:50:39;;;;;;;0.80;0.80;;;6.40;99.90;;;;;;5262770;28;20024;-75
2021/12/01 00:53:13;;;;;;;0.80;0.80;;;6.40;99.90;;;;;;5261737;28;20032;-74
2021/12/01 00:55:44;;;;;;;0.80;0.80;;;6.40;99.90;;;;;;5261645;28;20020;-74
2021/12/01 00:58:16;;;;;;;0.70;0.70;;;6.50;99.90;;;;;;5244034;28;20043;-74
2021/12/01 01:00:49;;;;;;;0.50;0.50;;;6.60;99.90;;;;;;5258474;28;20039;-74
2021/12/01 01:03:26;;;;;;;0.52;0.52;;;6.60;99.90;;;;;;5251755;28;20037;-74
2021/12/01 01:06:03;;;;;;;0.57;0.57;;;6.60;99.90;;;;;;5254619;28;20353;-73
2021/12/01 01:08:38;;;;;;;0.60;0.60;;;6.70;99.90;;;;;;5261386;28;20068;-75
2021/12/01 01:11:10;;;;;;;0.75;0.75;;;6.70;99.90;;;;;;5244585;28;20438;-74
2021/12/01 01:16:34;;;;;;;0.60;0.60;;;6.70;99.90;;;;;;5260484;28;20474;-73
2021/12/01 01:19:08;;;;;;;0.40;0.40;;;6.70;99.90;;;;;;5244615;28;20024;-76
2021/12/01 01:21:44;;;;;;;0.43;0.43;;;6.80;99.90;;;;;;5264186;28;20043;-74
2021/12/01 01:24:16;;;;;;;0.50;0.50;;;6.80;99.90;;;;;;5266701;28;20085;-74
2021/12/01 01:26:51;;;;;;;0.60;0.60;;;6.80;99.90;;;;;;5249388;28;20039;-74
2021/12/01 01:29:25;;;;;;;0.50;0.50;;;6.90;99.90;;;;;;5266718;28;20020;-73
2021/12/01 01:32:00;;;;;;;0.77;0.77;;;6.90;99.90;;;;;;5259991;28;20035;-74
2021/12/01 01:34:34;;;;;;;0.70;0.70;;;6.80;99.90;;;;;;5265570;28;20055;-74
2021/12/01 01:37:04;;;;;;;0.57;0.57;;;6.80;99.90;;;;;;5266632;28;20560;-75
2021/12/01 01:39:35;;;;;;;0.50;0.50;;;6.80;99.90;;;;;;5277453;27;20103;-75
2021/12/01 01:42:12;;;;;;;0.60;0.60;;;6.80;99.90;;;;;;5272501;27;20094;-74
2021/12/01 01:44:45;;;;;;;0.45;0.45;;;6.80;99.90;;;;;;5307837;27;20046;-75
2021/12/01 01:47:16;;;;;;;0.55;0.55;;;6.80;99.90;;;;;;5307468;27;20520;-74
2021/12/01 01:50:14;;;;;;;0.50;0.50;;;6.80;99.90;;;;;;5290511;27;20035;-74
2021/12/01 01:52:47;;;;;;;0.50;0.50;;;6.80;99.90;;;;;;5290754;27;20035;-75
2021/12/01 01:55:18;;;;;;;0.60;0.60;;;6.90;99.90;;;;;;5290511;27;20376;-74
2021/12/01 01:57:49;;;;;;;0.85;0.85;;;7.00;99.90;;;;;;5307925;27;20038;-74
2021/12/01 02:00:20;;;;;;;0.75;0.75;;;6.90;99.90;;;;;;5308132;27;20031;-74
2021/12/01 02:02:52;;;;;;;0.57;0.57;;;6.90;99.90;;;;;;5287600;27;20042;-74
2021/12/01 02:05:25;;;;;;;0.55;0.55;;;6.80;99.90;;;;;;5297283;27;20058;-75
2021/12/01 02:07:57;;;;;;;0.60;0.60;;;6.70;99.90;;;;;;5290471;27;20050;-76
2021/12/01 02:10:28;;;;;;;0.82;0.82;;;6.70;99.90;;;;;;5307110;27;20117;-74
2021/12/01 02:12:59;;;;;;;0.70;0.70;;;6.70;99.90;;;;;;5305272;27;20028;-74
2021/12/01 02:15:29;;;;;;;0.65;0.65;;;6.60;99.90;;;;;;5290386;27;20037;-75
2021/12/01 02:18:00;;;;;;;0.73;0.73;;;6.70;99.90;;;;;;5293756;27;20068;-74
2021/12/01 02:20:32;;;;;;;0.50;0.50;;;6.70;99.90;;;;;;5311731;27;20053;-74
2021/12/01 02:23:03;;;;;;;0.50;0.50;;;6.80;99.90;;;;;;5276585;27;20019;-74
2021/12/01 02:25:35;;;;;;;0.80;0.80;;;6.80;99.90;;;;;;5286034;28;21001;-73
2021/12/01 02:28:09;;;;;;;0.68;0.68;;;6.60;99.90;;;;;;5275547;27;20073;-74
2021/12/01 02:30:40;;;;;;;;;;;6.70;99.90;;;;;;5306255;27;20023;-74
2021/12/01 02:33:12;;;;;;;0.50;0.50;;;6.70;99.90;;;;;;5288531;27;20016;-74
2021/12/01 02:35:48;;;;;;;0.73;0.73;;;6.70;99.90;;;;;;5274146;27;20552;-74
2021/12/01 02:38:20;;;;;;;0.60;0.60;;;6.70;99.90;;;;;;5305785;27;20102;-76
2021/12/01 02:40:53;;;;;;;0.80;0.80;;;6.70;99.90;;;;;;5305026;27;20072;-75
2021/12/01 02:43:24;;;;;;;0.65;0.65;;;6.80;99.90;;;;;;5288794;27;20031;-74
2021/12/01 02:45:58;;;;;;;0.75;0.75;;;6.80;99.90;;;;;;5305942;27;20091;-74
2021/12/01 02:48:29;;;;;;;0.80;0.80;;;6.80;99.90;;;;;;5306316;27;20027;-74
2021/12/01 02:51:06;;;;;;;0.60;0.60;;;6.90;99.90;;;;;;5254706;27;20367;-74
2021/12/01 02:53:40;;;;;;;0.60;0.60;;;6.90;99.90;;;;;;5293771;27;20024;-74
2021/12/01 02:56:13;;;;;;;0.70;0.70;;;6.90;99.90;;;;;;5304902;27;20038;-74
2021/12/01 02:58:50;;;;;;;0.90;0.90;;;6.90;99.90;;;;;;5307271;27;20023;-75
2021/12/01 03:01:23;;;;;;;0.68;0.68;;;6.90;99.90;;;;;;5272389;27;20023;-74
2021/12/01 03:03:57;;;;;;;0.60;0.60;;;6.80;99.90;;;;;;5267499;28;20035;-75
2021/12/01 03:06:33;;;;;;;0.88;0.88;;;6.80;99.90;;;;;;5268154;28;20042;-76
2021/12/01 03:09:12;;;;;;;0.75;0.75;;;6.70;99.90;;;;;;5303082;27;20027;-73
2021/12/01 03:11:45;;;;;;;0.80;0.80;;;6.60;99.90;;;;;;5307864;27;20031;-74
2021/12/01 03:14:18;;;;;;;0.80;0.80;;;6.70;99.90;;;;;;5253123;28;20027;-74
2021/12/01 03:16:52;;;;;;;0.50;0.50;;;6.70;99.90;;;;;;5284803;28;20031;-75
2021/12/01 03:19:23;;;;;;;0.60;0.60;;;6.70;99.90;;;;;;5305155;27;20449;-74
2021/12/01 03:21:59;;;;;;;0.70;0.70;;;6.60;99.90;;;;;;5288260;27;20034;-75
2021/12/01 03:24:33;;;;;;;0.55;0.55;;;6.60;99.90;;;;;;5306281;27;20027;-75
2021/12/01 03:27:06;;;;;;;0.50;0.50;;;6.60;99.90;;;;;;5288202;27;20030;-75
2021/12/01 03:29:39;;;;;;;0.50;0.50;;;6.60;99.90;;;;;;5287591;27;20023;-74
2021/12/01 03:32:10;;;;;;;0.70;0.70;;;6.70;99.90;;;;;;5303892;27;20042;-75
2021/12/01 03:34:45;;;;;;;0.73;0.73;;;6.80;99.90;;;;;;5271087;27;20067;-76
2021/12/01 03:37:16;;;;;;;0.77;0.77;;;6.80;99.90;;;;;;5286330;27;20022;-74
2021/12/01 03:39:55;;;;;;;0.70;0.70;;;6.70;99.90;;;;;;5286653;27;20050;-76
2021/12/01 03:42:27;;;;;;;0.70;0.70;;;6.70;99.90;;;;;;5305686;27;20051;-76
2021/12/01 03:44:58;;;;;;;0.70;0.70;;;6.80;99.90;;;;;;5288239;27;20019;-74
2021/12/01 03:47:32;;;;;;;0.75;0.75;;;6.70;99.90;;;;;;5273188;27;20495;-75
2021/12/01 03:50:04;;;;;;;0.60;0.60;;;6.70;99.90;;;;;;5307745;27;20201;-75
2021/12/01 03:52:38;;;;;;;0.63;0.63;;;6.70;99.90;;;;;;5308213;27;20034;-74
2021/12/01 03:55:14;;;;;;;0.90;0.90;;;6.80;99.90;;;;;;5271630;27;20015;-76
2021/12/01 03:57:46;;;;;;;0.90;0.90;;;6.80;99.90;;;;;;5305833;27;20038;-75
2021/12/01 04:00:20;;;;;;;0.70;0.70;;;6.80;99.90;;;;;;5288350;27;20057;-74
2021/12/01 04:02:54;;;;;;;0.73;0.73;;;6.80;99.90;;;;;;5288162;28;20076;-77
2021/12/01 04:05:25;;;;;;;0.70;0.70;;;6.70;99.90;;;;;;5275154;27;20035;-75
2021/12/01 04:07:56;;;;;;;0.60;0.60;;;6.70;99.90;;;;;;5310558;27;20030;-75
2021/12/01 04:10:31;;;;;;;0.52;0.52;;;6.80;99.90;;;;;;5308975;27;20385;-75
2021/12/01 04:13:02;;;;;;;0.60;0.60;;;6.80;99.90;;;;;;5297613;27;20020;-75
2021/12/01 04:15:34;;;;;;;0.40;0.40;;;6.90;99.90;;;;;;5288147;28;20094;-76
2021/12/01 04:18:05;;;;;;;0.43;0.43;;;6.90;99.90;;;;;;5287235;28;20051;-75
2021/12/01 04:20:36;;;;;;;0.75;0.75;;;6.90;99.90;;;;;;5301180;27;20142;-75
2021/12/01 04:23:07;;;;;;;0.70;0.70;;;7.00;99.90;;;;;;5284915;28;20057;-76
2021/12/01 04:25:38;;;;;;;0.70;0.70;;;6.90;99.90;;;;;;5287818;28;20086;-76
2021/12/01 04:28:09;;;;;;;0.40;0.40;;;6.90;99.90;;;;;;5306013;28;20027;-75
2021/12/01 04:30:40;;;;;;;0.80;0.80;;;6.90;99.90;;;;;;5308302;28;20055;-75
2021/12/01 04:33:17;;;;;;;0.73;0.73;;;6.90;99.90;;;;;;5307731;28;20034;-75
2021/12/01 04:35:49;;;;;;;0.80;0.80;;;6.90;99.90;;;;;;5272711;28;20046;-75
2021/12/01 04:38:25;;;;;;;0.60;0.60;;;6.90;99.90;;;;;;5287413;27;20051;-75
2021/12/01 04:40:56;;;;;;;0.93;0.93;;;6.90;99.90;;;;;;5273447;28;20239;-76
2021/12/01 04:43:27;;;;;;;0.40;0.40;;;6.90;99.90;;;;;;5263782;28;20020;-75
2021/12/01 04:46:00;;;;;;;0.70;0.70;;;6.90;99.90;;;;;;5263139;28;20028;-75
2021/12/01 04:48:32;;;;;;;0.60;0.60;;;6.90;99.90;;;;;;5248383;28;20031;-75
2021/12/01 04:51:05;;;;;;;0.73;0.73;;;6.80;99.90;;;;;;5262864;28;20028;-77
2021/12/01 04:53:38;;;;;;;0.60;0.60;;;6.90;99.90;;;;;;5245735;28;20038;-74
2021/12/01 04:56:09;;;;;;;0.70;0.70;;;6.90;99.90;;;;;;5247242;28;20048;-75
2021/12/01 04:58:42;;;;;;;0.60;0.60;;;6.80;99.90;;;;;;5245268;28;20044;-74
2021/12/01 05:01:13;;;;;;;0.40;0.40;;;6.80;99.90;;;;;;5245684;28;20234;-74
2021/12/01 05:03:47;;;;;;;0.40;0.40;;;6.80;99.90;;;;;;5266368;28;20031;-75
2021/12/01 05:06:22;;;;;;;0.40;0.40;;;6.80;99.90;;;;;;5266503;28;20028;-76
2021/12/01 05:09:00;;;;;;;0.60;0.60;;;6.80;99.90;;;;;;5266358;28;20063;-75
2021/12/01 05:11:31;;;;;;;0.60;0.60;;;6.80;99.90;;;;;;5216383;28;20031;-75
2021/12/01 05:14:06;;;;;;;0.55;0.55;;;6.70;99.90;;;;;;5266434;28;20024;-74
2021/12/01 05:16:39;;;;;;;;;;;6.50;99.90;;;;;;5268088;28;20024;-74
2021/12/01 05:19:11;;;;;;;0.50;0.50;;;6.50;99.90;;;;;;5282894;28;19949;-74
2021/12/01 05:21:42;;;;;;;0.70;0.70;;;6.50;99.90;;;;;;5266093;28;20028;-74
2021/12/01 05:24:15;;;;;;;0.40;0.40;;;6.50;99.90;;;;;;5267268;28;20065;-74
2021/12/01 05:26:50;;;;;;;0.68;0.68;;;6.50;99.90;;;;;;5265918;28;20063;-74
2021/12/01 05:29:23;;;;;;;0.60;0.60;;;6.50;99.90;;;;;;5265502;28;20032;-74
2021/12/01 05:31:55;;;;;;;0.68;0.68;;;6.70;99.90;;;;;;5266849;28;20069;-73
2021/12/01 05:34:27;;;;;;;0.60;0.60;;;6.70;99.90;;;;;;5247171;28;20103;-74
2021/12/01 05:37:01;;;;;;;0.70;0.70;;;6.60;99.90;;;;;;5268183;28;20070;-73
2021/12/01 05:39:32;;;;;;;0.85;0.85;;;6.70;99.90;;;;;;5269292;28;20225;-72
2021/12/01 05:42:04;;;;;;;0.73;0.73;;;6.70;99.90;;;;;;5287580;28;20026;-74
2021/12/01 05:44:38;;;;;;;0.45;0.45;;;6.80;99.90;;;;;;5289139;28;20028;-73
2021/12/01 05:47:16;;;;;;;0.80;0.80;;;6.90;99.90;;;;;;5254718;28;20688;-73
2021/12/01 05:49:51;;;;;;;0.70;0.70;;;6.90;99.90;;;;;;5267177;28;20032;-73
2021/12/01 05:52:21;;;;;;;;;;;6.90;99.90;;;;;;5282364;28;20232;-73
2021/12/01 05:54:54;;;;;;;0.57;0.57;;;6.80;99.90;;;;;;5287526;28;19908;-73
2021/12/01 05:57:25;;;;;;;0.70;0.70;;;6.80;99.90;;;;;;5288374;28;20040;-74
2021/12/01 05:59:59;;;;;;;0.38;0.38;;;6.70;99.90;;;;;;5286497;28;20031;-75
2021/12/01 06:02:30;;;;;;;1.02;1.02;;;6.80;99.90;;;;;;5265356;28;20059;-74
2021/12/01 06:05:04;;;;;;;0.50;0.50;;;6.80;99.90;;;;;;5275615;28;20028;-74
2021/12/01 06:07:40;;;;;;;0.80;0.80;;;6.80;99.90;;;;;;5282712;28;20101;-74
2021/12/01 06:10:14;;;;;;;0.70;0.70;;;6.80;99.90;;;;;;5264744;28;20245;-73
2021/12/01 06:12:47;;;;;;;0.80;0.80;;;6.80;99.90;;;;;;5265574;28;20028;-73
2021/12/01 06:15:20;;;;;;;0.63;0.63;;;6.90;99.90;;;;;;5264824;28;20031;-72
2021/12/01 06:17:55;;;;;;;0.60;0.60;;;6.90;99.90;;;;;;5247731;28;20031;-73
2021/12/01 06:20:27;;;;;;;1.00;1.00;;;7.00;99.90;;;;;;5249276;28;20379;-73
2021/12/01 06:22:58;;;;;;;0.60;0.60;;;7.10;99.90;;;;;;5257523;28;20101;-74
2021/12/01 06:25:28;;;;;;;0.73;0.73;;;7.10;99.90;;;;;;5265096;28;20016;-73
2021/12/01 06:28:05;;;;;;;0.70;0.70;;;7.20;99.90;;;;;;5264031;28;20028;-73
2021/12/01 06:30:40;;;;;;;0.80;0.80;;;7.20;99.90;;;;;;5231204;28;20594;-73
2021/12/01 06:33:11;;;;;;;0.50;0.50;;;7.20;99.90;;;;;;5272558;28;20442;-73
2021/12/01 06:35:48;;;;;;;0.68;0.68;;;7.40;99.90;;;;;;5264384;28;20095;-74
2021/12/01 06:38:20;;;;;;;0.52;0.52;;;7.40;99.90;;;;;;5278475;28;20101;-73
2021/12/01 06:40:54;;;;;;;0.90;0.90;;;7.50;99.90;;;;;;5298237;27;20016;-74
2021/12/01 06:43:27;;;;;;;0.63;0.63;;;7.60;99.90;;;;;;5292611;27;20702;-74
2021/12/01 06:46:01;;;;;;;0.80;0.80;;;7.60;99.90;;;;;;5286726;27;20076;-74
2021/12/01 06:48:32;;;;;;;0.52;0.52;;;7.60;99.90;;;;;;5288295;27;20015;-74
2021/12/01 06:51:05;;;;;;;0.90;0.90;;;7.60;99.90;;;;;;5290496;27;20023;-75
2021/12/01 06:53:36;;;;;;;0.68;0.68;;;7.60;99.90;;;;;;5288436;27;20030;-75
2021/12/01 06:56:09;;;;;;;0.70;0.70;;;7.70;99.90;;;;;;5285747;27;20348;-73
2021/12/01 06:58:42;;;;;;;0.52;0.52;;;7.70;99.90;;;;;;5280049;27;20051;-74
2021/12/01 07:01:20;;;;;;;0.70;0.70;;;7.70;99.90;;;;;;5251111;28;20023;-73
2021/12/01 07:03:57;;;;;;;0.60;0.60;;;7.70;99.90;;;;;;5291041;27;20027;-73
2021/12/01 07:06:30;;;;;;;0.60;0.60;;;7.80;99.90;;;;;;5250539;27;20035;-73
2021/12/01 07:09:02;;;;;;;0.70;0.70;;;7.80;99.90;;;;;;5300324;27;20027;-73
2021/12/01 07:11:33;;;;;;;0.65;0.65;;;7.90;99.90;;;;;;5286850;27;20027;-74
2021/12/01 07:14:09;;;;;;;0.57;0.57;;;7.90;99.90;;;;;;5317531;27;20100;-73
2021/12/01 07:16:41;;;;;;;0.88;0.88;;;7.90;99.90;;;;;;5295007;27;20091;-75
2021/12/01 07:19:13;;;;;;;0.60;0.60;;;8.00;99.90;;;;;;5300766;27;20019;-73
2021/12/01 07:21:47;;;;;;;0.52;0.52;;;8.00;99.90;;;;;;5306067;27;20024;-74
2021/12/01 07:24:21;;;;;;;0.70;0.70;;;8.00;99.90;;;;;;5298467;27;20036;-73
2021/12/01 07:26:55;;;;;;;;;;;8.00;99.90;;;;;;5291974;27;20028;-74
2021/12/01 07:29:26;;;;;;;0.70;0.70;;;8.00;99.90;;;;;;5281839;28;20138;-74
2021/12/01 07:32:00;;;;;;;0.70;0.70;;;7.80;99.90;;;;;;5285114;28;20528;-73
2021/12/01 07:34:31;;;;;;;0.75;0.75;;;7.70;99.90;;;;;;5282672;27;20027;-74
2021/12/01 07:37:02;;;;;;;0.50;0.50;;;7.60;99.90;;;;;;5277842;27;20054;-74
2021/12/01 07:39:33;;;;;;;0.80;0.80;;;7.50;99.90;;;;;;5308887;27;20502;-74
2021/12/01 07:42:07;;;;;;;0.70;0.70;;;7.50;99.90;;;;;;5283467;28;20027;-75
2021/12/01 07:44:42;;;;;;;0.70;0.70;;;7.60;99.90;;;;;;5282233;27;20051;-73
2021/12/01 07:47:13;;;;;;;0.80;0.80;;;7.60;99.90;;;;;;5279113;27;20101;-74
2021/12/01 07:49:44;;;;;;;0.52;0.52;;;7.60;99.90;;;;;;5283908;28;20066;-75
2021/12/01 07:52:15;;;;;;;0.70;0.70;;;7.70;99.90;;;;;;5284433;28;20031;-74
2021/12/01 07:54:45;;;;;;;0.73;0.73;;;7.80;99.90;;;;;;5283265;28;20314;-75
2021/12/01 07:57:17;;;;;;;0.88;0.88;;;7.90;99.90;;;;;;5276443;28;20082;-74
2021/12/01 07:59:55;;;;;;;0.85;0.85;;;7.90;99.90;;;;;;5287865;27;20039;-76
2021/12/01 08:02:29;;;;;;;0.63;0.63;;;7.90;99.90;;;;;;5286825;27;20024;-74
2021/12/01 08:05:01;;;;;;;0.70;0.70;;;8.00;99.90;;;;;;5299721;27;20391;-75
2021/12/01 08:07:35;;;;;;;0.60;0.60;;;8.10;99.90;;;;;;5280312;28;20463;-74
2021/12/01 08:10:10;;;;;;;0.90;0.90;;;8.20;99.90;;;;;;5295085;28;20042;-74
2021/12/01 08:12:41;;;;;;;0.63;0.63;;;8.20;99.90;;;;;;5283830;27;20103;-75
2021/12/01 08:15:14;;;;;;;0.55;0.55;;;8.30;99.90;;;;;;5297579;27;20078;-73
2021/12/01 08:17:44;;;;;;;0.80;0.80;;;8.40;99.90;;;;;;5291990;27;20039;-75
2021/12/01 08:20:15;;;;;;;0.57;0.57;;;8.40;99.90;;;;;;5300092;27;20043;-74
2021/12/01 08:22:47;;;;;;;0.90;0.90;;;8.30;99.90;;;;;;5287755;28;20015;-74
2021/12/01 08:25:18;;;;;;;1.00;1.00;;;8.30;99.90;;;;;;5288176;28;20023;-74
2021/12/01 08:27:52;;;;;;;0.70;0.70;;;8.30;99.90;;;;;;5263398;28;20058;-74
2021/12/01 08:30:25;;;;;;;0.70;0.70;;;8.30;99.90;;;;;;5282067;27;20027;-73
2021/12/01 08:33:02;;;;;;;0.80;0.80;;;8.30;99.90;;;;;;5289587;27;20027;-74
2021/12/01 08:35:35;;;;;;;0.60;0.60;;;8.30;99.90;;;;;;5290491;27;20499;-75
2021/12/01 08:38:08;;;;;;;0.98;0.98;;;8.20;99.90;;;;;;5286353;28;20050;-75
2021/12/01 08:40:45;;;;;;;0.73;0.73;;;8.20;99.90;;;;;;5289872;27;20380;-74
2021/12/01 08:43:18;;;;;;;1.00;1.00;;;8.20;99.90;;;;;;5275096;28;20031;-73
2021/12/01 08:45:51;;;;;;;1.20;1.20;;;8.20;99.90;;;;;;5269609;28;20032;-73
2021/12/01 08:48:26;;;;;;;0.50;0.50;;;8.10;99.90;;;;;;5271704;28;20553;-73
2021/12/01 08:51:01;;;;;;;0.80;0.80;;;8.10;99.90;;;;;;5268487;28;20016;-73
2021/12/01 08:53:35;;;;;;;0.70;0.70;;;8.10;99.90;;;;;;5266931;28;20031;-73
2021/12/01 08:56:10;;;;;;;1.10;1.10;;;8.10;99.90;;;;;;5265868;28;20036;-73
2021/12/01 08:58:41;;;;;;;;;;;8.20;99.90;;;;;;5274889;28;20038;-73
2021/12/01 09:01:15;;;;;;;0.80;0.80;;;8.10;99.90;;;;;;5284821;28;19960;-74
2021/12/01 09:03:46;;;;;;;1.00;1.00;;;8.10;99.90;;;;;;5282733;28;20072;-75
2021/12/01 09:06:19;;;;;;;1.00;1.00;;;8.00;99.90;;;;;;5303080;27;20040;-75
2021/12/01 09:08:54;;;;;;;0.90;0.90;;;8.00;99.90;;;;;;5271261;28;20024;-73
2021/12/01 09:11:25;;;;;;;0.80;0.80;;;7.90;99.90;;;;;;5284629;28;20434;-75
2021/12/01 09:14:01;;;;;;;0.70;0.70;;;7.80;99.90;;;;;;5272527;28;20034;-76
2021/12/01 09:16:32;;;;;;;0.75;0.75;;;7.80;99.90;;;;;;5253254;28;20032;-75
2021/12/01 09:19:08;;;;;;;0.60;0.60;;;7.70;99.90;;;;;;5278058;28;20050;-76
2021/12/01 09:21:41;;;;;;;0.57;0.57;;;7.70;99.90;;;;;;5248873;28;20100;-76
2021/12/01 09:24:14;;;;;;;0.50;0.50;;;7.80;99.90;;;;;;5246201;28;20526;-77
2021/12/01 09:26:45;;;;;;;1.00;1.00;;;7.80;99.90;;;;;;5266024;28;20028;-74
2021/12/01 09:29:16;;;;;;;0.70;0.70;;;7.80;99.90;;;;;;5281525;28;20348;-74
2021/12/01 09:31:48;;;;;;;0.73;0.73;;;7.80;99.90;;;;;;5253281;28;20401;-74
2021/12/01 09:34:24;;;;;;;0.50;0.50;;;7.90;99.90;;;;;;5282486;28;20030;-75
2021/12/01 09:36:57;;;;;;;1.75;1.65;;;7.90;99.90;;;;;;5250506;28;20609;-76
2021/12/01 09:39:28;;;;;;;0.70;0.70;;;7.90;99.90;;;;;;5265539;28;20476;-74
2021/12/01 09:42:01;;;;;;;0.70;0.70;;;7.90;99.90;;;;;;5265375;28;20016;-74
2021/12/01 09:44:33;;;;;;;0.70;0.70;;;7.80;99.90;;;;;;5253104;28;20024;-73
2021/12/01 09:47:06;;;;;;;0.90;0.90;;;8.00;99.90;;;;;;5265156;28;20074;-74
2021/12/01 09:49:40;;;;;;;1.88;1.80;;;8.00;99.90;;;;;;5264423;28;20032;-74
2021/12/01 09:52:13;;;;;;;1.30;1.30;;;7.90;99.90;;;;;;5261895;28;20107;-74
2021/12/01 09:54:45;;;;;;;0.80;0.80;;;7.90;99.90;;;;;;5247817;28;20036;-74
2021/12/01 09:57:16;;;;;;;0.80;0.80;;;7.90;99.90;;;;;;5259916;28;20040;-73
2021/12/01 09:59:47;;;;;;;0.80;0.80;;;7.90;99.90;;;;;;5256370;28;20153;-73
2021/12/01 10:02:24;;;;;;;0.70;0.70;;;7.90;99.90;;;;;;5261677;28;20641;-74
2021/12/01 10:04:55;;;;;;;0.50;0.50;;;8.00;99.90;;;;;;5248540;28;20111;-74
2021/12/01 10:07:35;;;;;;;2.70;2.45;;;8.00;99.90;;;;;;5266761;28;20027;-73
2021/12/01 10:10:09;;;;;;;0.77;0.77;;;7.90;99.90;;;;;;5264838;28;20083;-76
2021/12/01 10:12:51;;;;;;;0.60;0.60;;;8.00;99.90;;;;;;5264732;28;20028;-74
2021/12/01 10:15:30;;;;;;;0.90;0.90;;;8.00;99.90;;;;;;5265907;28;20434;-74
2021/12/01 10:18:17;;;;;;;0.70;0.70;;;8.00;99.90;;;;;;5258113;28;20398;-74
2021/12/01 10:21:21;;;;;;;0.85;0.85;;;8.00;99.90;;;;;;5255654;28;20126;-75
2021/12/01 10:24:00;;;;;;;0.80;0.80;;;8.10;99.90;;;;;;5164786;28;20105;-73
2021/12/01 10:26:52;;;;;;;0.80;0.80;;;8.20;99.90;;;;;;5179449;28;20392;-73
2021/12/01 10:29:35;;;;;;;0.73;0.73;;;8.40;99.90;;;;;;5181105;28;20163;-74
2021/12/01 10:32:07;;;;;;;0.85;0.85;;;8.50;99.90;;;;;;5164606;28;20045;-76
2021/12/01 10:34:45;;;;;;;0.80;0.80;;;8.60;99.90;;;;;;5179499;28;20511;-75
2021/12/01 10:37:31;;;;;;;1.35;1.35;;;8.70;99.90;;;;;;5179186;28;20052;-74
2021/12/01 10:40:15;;;;;;;0.55;0.55;;;8.70;99.90;;;;;;5163205;28;20040;-75
2021/12/01 10:43:10;;;;;;;0.70;0.70;;;8.80;99.90;;;;;;5170308;28;20126;-74
2021/12/01 10:45:45;;;;;;;;;;;8.90;99.90;;;;;;5167987;28;20030;-73
2021/12/01 10:48:23;;;;;;;0.95;0.95;;;9.00;99.90;;;;;;5167464;28;19988;-74
2021/12/01 10:50:55;;;;;;;0.80;0.80;;;9.00;99.90;;;;;;5162681;28;20466;-74
2021/12/01 10:53:27;;;;;;;0.80;0.80;;;9.00;99.90;;;;;;5191471;28;20038;-74
2021/12/01 10:56:06;;;;;;;0.80;0.80;;;8.90;99.90;;;;;;5183926;28;20553;-73
2021/12/01 10:58:40;;;;;;;0.90;0.90;;;8.80;99.90;;;;;;5187794;28;20051;-74
2021/12/01 11:01:24;;;;;;;0.68;0.68;;;8.70;99.90;;;;;;5284850;28;20027;-74
2021/12/01 11:03:55;;;;;;;0.70;0.70;;;8.70;99.90;;;;;;5286398;27;20031;-73
2021/12/01 11:06:27;;;;;;;0.60;0.60;;;8.70;99.90;;;;;;5286525;28;20043;-74
2021/12/01 11:09:00;;;;;;;0.80;0.80;;;8.70;99.90;;;;;;5285546;28;20095;-75
2021/12/01 11:11:43;;;;;;;0.77;0.77;;;8.70;99.90;;;;;;5285131;28;20108;-74
2021/12/01 11:14:19;;;;;;;0.95;0.95;;;8.70;99.90;;;;;;5285019;28;20351;-73
2021/12/01 11:16:52;;;;;;;0.82;0.82;;;8.80;99.90;;;;;;5282808;28;20343;-75
2021/12/01 11:19:39;;;;;;;0.90;0.90;;;8.80;99.90;;;;;;5283106;28;20019;-73
2021/12/01 11:22:34;;;;;;;0.70;0.70;;;8.80;99.90;;;;;;5285678;28;20031;-74
2021/12/01 11:25:22;;;;;;;0.82;0.82;;;8.70;99.90;;;;;;5297924;27;20167;-74
2021/12/01 11:27:56;;;;;;;1.33;1.33;;;8.70;99.90;;;;;;5289564;27;20092;-74
2021/12/01 11:30:27;;;;;;;1.63;1.63;;;8.70;99.90;;;;;;5302337;27;20098;-74
2021/12/01 11:33:06;;;;;;;1.73;1.70;;;8.70;99.90;;;;;;5284033;28;20606;-74
2021/12/01 11:35:38;;;;;;;1.10;1.10;;;8.70;99.90;;;;;;5285365;28;20026;-74
2021/12/01 11:38:11;;;;;;;5.75;2.13;;;8.70;99.90;;;;;;5284897;28;20023;-75
2021/12/01 11:40:42;;;;;;;0.90;0.90;;;8.70;99.90;;;;;;5270558;28;20035;-75
2021/12/01 11:43:17;;;;;;;0.77;0.77;;;8.70;99.90;;;;;;5277126;28;20024;-75
2021/12/01 11:45:51;;;;;;;;;;;8.70;99.90;;;;;;5262527;28;20026;-75
2021/12/01 11:48:26;;;;;;;0.80;0.80;;;8.70;99.90;;;;;;5263215;28;19957;-74
2021/12/01 11:51:22;;;;;;;0.70;0.70;;;8.60;99.90;;;;;;5262691;28;20095;-75
2021/12/01 11:53:56;;;;;;;;;;;8.60;99.90;;;;;;5263370;28;20036;-76
2021/12/01 11:56:33;;;;;;;1.25;1.25;;;8.50;99.90;;;;;;5263214;28;19965;-74
2021/12/01 11:59:16;;;;;;;0.90;0.90;;;8.50;99.90;;;;;;5246396;28;20032;-74
2021/12/01 12:02:04;;;;;;;0.63;0.63;;;8.50;99.90;;;;;;5268771;28;20048;-74
2021/12/01 12:04:51;;;;;;;0.85;0.85;;;8.50;99.90;;;;;;5225564;28;20036;-75
2021/12/01 12:07:36;;;;;;;1.38;1.33;;;8.50;99.90;;;;;;5241713;28;20032;-74
2021/12/01 12:10:09;;;;;;;0.70;0.70;;;8.60;99.90;;;;;;5234572;28;20091;-74
2021/12/01 12:13:04;;;;;;;0.60;0.60;;;8.50;99.90;;;;;;5263635;28;20028;-75
2021/12/01 12:15:53;;;;;;;1.83;1.73;;;8.60;99.90;;;;;;5245351;28;20039;-74
2021/12/01 12:18:36;;;;;;;0.50;0.50;;;8.70;99.90;;;;;;5261527;28;20040;-76
2021/12/01 12:21:35;;;;;;;0.90;0.90;;;8.70;99.90;;;;;;5263954;28;20062;-76
2021/12/01 12:24:16;;;;;;;0.70;0.70;;;8.70;99.90;;;;;;5262169;28;20048;-76
2021/12/01 12:26:58;;;;;;;0.90;0.90;;;8.80;99.90;;;;;;5263590;28;20024;-76
2021/12/01 12:29:31;;;;;;;0.80;0.80;;;8.80;99.90;;;;;;5265787;28;20043;-77
2021/12/01 12:32:23;;;;;;;0.98;0.98;;;8.80;99.90;;;;;;5262164;28;20028;-75
2021/12/01 12:35:00;;;;;;;0.88;0.88;;;8.80;99.90;;;;;;5262300;28;20486;-76
2021/12/01 12:37:40;;;;;;;1.05;1.05;;;8.80;99.90;;;;;;5262662;28;20028;-76
2021/12/01 12:40:35;;;;;;;0.85;0.85;;;8.90;99.90;;;;;;5262481;28;20032;-75
2021/12/01 12:43:15;;;;;;;0.70;0.70;;;9.00;99.90;;;;;;5262535;28;20027;-75
2021/12/01 12:46:16;;;;;;;0.60;0.60;;;9.10;99.90;;;;;;5245144;28;20397;-74
2021/12/01 12:48:52;;;;;;;0.80;0.80;;;9.10;99.90;;;;;;5230244;28;20033;-76
2021/12/01 12:51:31;;;;;;;0.70;0.70;;;9.20;99.90;;;;;;5241896;28;20072;-74
2021/12/01 12:54:06;;;;;;;0.70;0.70;;;9.60;99.90;;;;;;5241516;28;20024;-75
2021/12/01 12:56:47;;;;;;;0.70;0.70;;;10.80;99.90;;;;;;5261288;28;20028;-75
2021/12/01 12:59:32;;;;;;;1.77;1.67;;;12.20;99.90;;;;;;5258309;28;20032;-76
2021/12/01 13:02:15;;;;;;;0.68;0.68;;;12.90;99.90;;;;;;5253526;28;20032;-76
2021/12/01 13:04:59;;;;;;;0.73;0.73;;;14.50;99.90;;;;;;5263464;28;20020;-76
2021/12/01 13:07:30;;;;;;;1.10;1.10;;;14.80;99.90;;;;;;5258415;28;20081;-74
2021/12/01 13:10:10;;;;;;;1.17;1.17;;;14.20;99.90;;;;;;5262959;28;20107;-74
2021/12/01 13:13:04;;;;;;;0.70;0.70;;;13.70;99.90;;;;;;5247979;28;20422;-75
2021/12/01 13:15:55;;;;;;;0.90;0.90;;;12.30;99.90;;;;;;5255870;28;20046;-74
2021/12/01 13:18:31;;;;;;;0.80;0.80;;;10.90;99.90;;;;;;5256465;28;20511;-76
2021/12/01 13:21:13;;;;;;;0.63;0.63;;;10.40;99.90;;;;;;5266734;28;20059;-75
2021/12/01 13:23:49;;;;;;;0.63;0.63;;;10.20;99.90;;;;;;5245848;28;20526;-75
2021/12/01 13:26:28;;;;;;;0.80;0.80;;;10.10;99.90;;;;;;5262313;28;20043;-75
2021/12/01 13:29:16;;;;;;;1.35;1.35;;;10.00;99.90;;;;;;5228723;28;20028;-77
2021/12/01 13:31:47;;;;;;;0.82;0.82;;;10.00;99.90;;;;;;5253083;28;20039;-77
2021/12/01 13:34:26;;;;;;;0.70;0.70;;;10.00;99.90;;;;;;5263130;28;20032;-75
2021/12/01 13:37:04;;;;;;;1.33;1.33;;;10.10;99.90;;;;;;5254067;28;20032;-76
2021/12/01 13:39:40;;;;;;;0.60;0.60;;;9.70;99.90;;;;;;5277886;27;20038;-74
2021/12/01 13:42:21;;;;;;;0.70;0.70;;;9.50;99.90;;;;;;5312083;27;20026;-74